sensor_id;sensor_type;location;lat;lon;timestamp;P1;durP1;ratioP1;P2;durP2;ratioP2
55212;SDS011;41083;52.932;6.674;2022-10-12T00:01:01;1.25;;;0.60;;
55212;SDS011;41083;52.932;6.674;2022-10-12T00:03:28;4.38;;;0.50;;
55212;SDS011;41083;52.932;6.674;2022-10-12T00:06:07;1.73;;;0.50;;
55212;SDS011;41083;52.932;6.674;2022-10-12T00:08:41;0.75;;;0.43;;
55212;SDS011;41083;52.932;6.674;2022-10-12T00:11:09;0.85;;;0.40;;
55212;SDS011;41083;52.932;6.674;2022-10-12T00:13:37;3.15;;;0.47;;
55212;SDS011;41083;52.932;6.674;2022-10-12T00:16:03;0.40;;;0.30;;
55212;SDS011;41083;52.932;6.674;2022-10-12T00:18:31;1.52;;;0.52;;
55212;SDS011;41083;52.932;6.674;2022-10-12T00:21:08;2.83;;;1.20;;
55212;SDS011;41083;52.932;6.674;2022-10-12T00:23:35;1.02;;;0.30;;
55212;SDS011;41083;52.932;6.674;2022-10-12T00:26:23;1.05;;;0.40;;
55212;SDS011;41083;52.932;6.674;2022-10-12T00:28:48;0.20;;;0.20;;
55212;SDS011;41083;52.932;6.674;2022-10-12T00:31:19;1.33;;;0.40;;
55212;SDS011;41083;52.932;6.674;2022-10-12T00:33:45;0.98;;;0.30;;
55212;SDS011;41083;52.932;6.674;2022-10-12T00:38:48;0.95;;;0.50;;
55212;SDS011;41083;52.932;6.674;2022-10-12T00:41:15;1.00;;;0.25;;
55212;SDS011;41083;52.932;6.674;2022-10-12T00:43:43;1.05;;;0.40;;
55212;SDS011;41083;52.932;6.674;2022-10-12T00:46:13;2.10;;;0.32;;
55212;SDS011;41083;52.932;6.674;2022-10-12T00:49:23;1.38;;;0.30;;
55212;SDS011;41083;52.932;6.674;2022-10-12T00:51:45;3.25;;;0.45;;
55212;SDS011;41083;52.932;6.674;2022-10-12T00:54:16;0.57;;;0.30;;
55212;SDS011;41083;52.932;6.674;2022-10-12T00:56:46;0.95;;;0.50;;
55212;SDS011;41083;52.932;6.674;2022-10-12T00:59:19;2.10;;;0.68;;
55212;SDS011;41083;52.932;6.674;2022-10-12T01:01:48;0.75;;;0.32;;
55212;SDS011;41083;52.932;6.674;2022-10-12T01:04:14;1.33;;;0.77;;
55212;SDS011;41083;52.932;6.674;2022-10-12T01:06:40;1.55;;;0.47;;
55212;SDS011;41083;52.932;6.674;2022-10-12T01:09:05;2.40;;;0.63;;
55212;SDS011;41083;52.932;6.674;2022-10-12T01:11:31;1.48;;;0.60;;
55212;SDS011;41083;52.932;6.674;2022-10-12T01:13:56;1.10;;;0.70;;
55212;SDS011;41083;52.932;6.674;2022-10-12T01:19:49;1.90;;;0.55;;
55212;SDS011;41083;52.932;6.674;2022-10-12T01:21:55;0.98;;;0.40;;
55212;SDS011;41083;52.932;6.674;2022-10-12T01:24:33;3.25;;;0.68;;
55212;SDS011;41083;52.932;6.674;2022-10-12T01:30:18;0.68;;;0.30;;
55212;SDS011;41083;52.932;6.674;2022-10-12T01:35:42;1.77;;;0.50;;
55212;SDS011;41083;52.932;6.674;2022-10-12T01:41:10;4.18;;;0.55;;
55212;SDS011;41083;52.932;6.674;2022-10-12T01:43:38;2.20;;;0.85;;
55212;SDS011;41083;52.932;6.674;2022-10-12T01:48:41;0.70;;;0.57;;
55212;SDS011;41083;52.932;6.674;2022-10-12T01:51:10;0.80;;;0.50;;
55212;SDS011;41083;52.932;6.674;2022-10-12T01:53:40;1.77;;;0.60;;
55212;SDS011;41083;52.932;6.674;2022-10-12T01:56:19;1.55;;;0.43;;
55212;SDS011;41083;52.932;6.674;2022-10-12T01:59:07;0.80;;;0.60;;
55212;SDS011;41083;52.932;6.674;2022-10-12T02:04:46;0.63;;;0.60;;
55212;SDS011;41083;52.932;6.674;2022-10-12T02:07:49;1.15;;;0.60;;
55212;SDS011;41083;52.932;6.674;2022-10-12T02:10:29;0.82;;;0.50;;
55212;SDS011;41083;52.932;6.674;2022-10-12T02:13:00;1.35;;;0.45;;
55212;SDS011;41083;52.932;6.674;2022-10-12T02:15:32;2.25;;;0.68;;
55212;SDS011;41083;52.932;6.674;2022-10-12T02:17:58;5.45;;;0.93;;
55212;SDS011;41083;52.932;6.674;2022-10-12T02:20:27;3.30;;;0.80;;
55212;SDS011;41083;52.932;6.674;2022-10-12T02:22:53;2.80;;;0.60;;
55212;SDS011;41083;52.932;6.674;2022-10-12T02:25:20;2.22;;;0.93;;
55212;SDS011;41083;52.932;6.674;2022-10-12T02:27:56;4.57;;;0.80;;
55212;SDS011;41083;52.932;6.674;2022-10-12T02:30:27;0.73;;;0.43;;
55212;SDS011;41083;52.932;6.674;2022-10-12T02:32:58;2.08;;;0.70;;
55212;SDS011;41083;52.932;6.674;2022-10-12T02:35:33;1.25;;;0.73;;
55212;SDS011;41083;52.932;6.674;2022-10-12T02:38:12;1.50;;;0.63;;
55212;SDS011;41083;52.932;6.674;2022-10-12T02:40:53;1.95;;;0.40;;
55212;SDS011;41083;52.932;6.674;2022-10-12T02:45:51;2.30;;;0.70;;
55212;SDS011;41083;52.932;6.674;2022-10-12T02:48:19;4.00;;;0.95;;
55212;SDS011;41083;52.932;6.674;2022-10-12T02:50:47;1.00;;;0.60;;
55212;SDS011;41083;52.932;6.674;2022-10-12T02:53:15;0.77;;;0.50;;
55212;SDS011;41083;52.932;6.674;2022-10-12T02:55:48;1.42;;;0.60;;
55212;SDS011;41083;52.932;6.674;2022-10-12T02:58:16;6.70;;;0.98;;
55212;SDS011;41083;52.932;6.674;2022-10-12T03:00:41;1.30;;;0.80;;
55212;SDS011;41083;52.932;6.674;2022-10-12T03:03:07;1.45;;;0.50;;
55212;SDS011;41083;52.932;6.674;2022-10-12T03:05:33;2.30;;;0.70;;
55212;SDS011;41083;52.932;6.674;2022-10-12T03:07:58;0.60;;;0.40;;
55212;SDS011;41083;52.932;6.674;2022-10-12T03:10:24;3.80;;;1.35;;
55212;SDS011;41083;52.932;6.674;2022-10-12T03:12:49;0.90;;;0.63;;
55212;SDS011;41083;52.932;6.674;2022-10-12T03:15:15;1.83;;;1.02;;
55212;SDS011;41083;52.932;6.674;2022-10-12T03:17:40;2.63;;;0.88;;
55212;SDS011;41083;52.932;6.674;2022-10-12T03:20:06;4.25;;;1.25;;
55212;SDS011;41083;52.932;6.674;2022-10-12T03:22:32;2.25;;;1.00;;
55212;SDS011;41083;52.932;6.674;2022-10-12T03:24:57;4.35;;;1.27;;
55212;SDS011;41083;52.932;6.674;2022-10-12T03:27:24;4.20;;;1.42;;
55212;SDS011;41083;52.932;6.674;2022-10-12T03:29:50;3.72;;;1.70;;
55212;SDS011;41083;52.932;6.674;2022-10-12T03:32:16;3.15;;;1.38;;
55212;SDS011;41083;52.932;6.674;2022-10-12T03:34:42;7.90;;;1.50;;
55212;SDS011;41083;52.932;6.674;2022-10-12T03:37:07;4.40;;;1.75;;
55212;SDS011;41083;52.932;6.674;2022-10-12T03:39:33;2.53;;;1.70;;
55212;SDS011;41083;52.932;6.674;2022-10-12T03:41:58;2.72;;;1.38;;
55212;SDS011;41083;52.932;6.674;2022-10-12T03:44:24;7.13;;;1.25;;
55212;SDS011;41083;52.932;6.674;2022-10-12T03:46:50;3.70;;;1.13;;
55212;SDS011;41083;52.932;6.674;2022-10-12T03:49:15;7.72;;;2.25;;
55212;SDS011;41083;52.932;6.674;2022-10-12T03:51:41;3.30;;;1.70;;
55212;SDS011;41083;52.932;6.674;2022-10-12T03:54:06;3.22;;;1.20;;
55212;SDS011;41083;52.932;6.674;2022-10-12T03:56:32;2.60;;;1.30;;
55212;SDS011;41083;52.932;6.674;2022-10-12T03:58:57;3.30;;;1.00;;
55212;SDS011;41083;52.932;6.674;2022-10-12T04:01:23;2.63;;;1.38;;
55212;SDS011;41083;52.932;6.674;2022-10-12T04:03:49;3.28;;;1.25;;
55212;SDS011;41083;52.932;6.674;2022-10-12T04:06:15;4.72;;;1.40;;
55212;SDS011;41083;52.932;6.674;2022-10-12T04:08:41;4.28;;;1.70;;
55212;SDS011;41083;52.932;6.674;2022-10-12T04:11:06;8.75;;;1.50;;
55212;SDS011;41083;52.932;6.674;2022-10-12T04:13:32;1.80;;;1.20;;
55212;SDS011;41083;52.932;6.674;2022-10-12T04:16:01;4.47;;;1.77;;
55212;SDS011;41083;52.932;6.674;2022-10-12T04:18:28;3.88;;;1.38;;
55212;SDS011;41083;52.932;6.674;2022-10-12T04:20:53;6.07;;;1.52;;
55212;SDS011;41083;52.932;6.674;2022-10-12T04:23:19;3.28;;;1.50;;
55212;SDS011;41083;52.932;6.674;2022-10-12T04:25:45;1.85;;;1.30;;
55212;SDS011;41083;52.932;6.674;2022-10-12T04:28:10;6.22;;;1.77;;
55212;SDS011;41083;52.932;6.674;2022-10-12T04:30:36;2.85;;;1.50;;
55212;SDS011;41083;52.932;6.674;2022-10-12T04:33:02;2.67;;;1.02;;
55212;SDS011;41083;52.932;6.674;2022-10-12T04:35:29;2.92;;;1.45;;
55212;SDS011;41083;52.932;6.674;2022-10-12T04:37:54;2.17;;;1.08;;
55212;SDS011;41083;52.932;6.674;2022-10-12T04:40:20;2.65;;;1.27;;
55212;SDS011;41083;52.932;6.674;2022-10-12T04:42:46;2.20;;;1.17;;
55212;SDS011;41083;52.932;6.674;2022-10-12T04:45:11;1.75;;;1.30;;
55212;SDS011;41083;52.932;6.674;2022-10-12T04:47:37;2.53;;;1.05;;
55212;SDS011;41083;52.932;6.674;2022-10-12T04:50:03;3.33;;;1.45;;
55212;SDS011;41083;52.932;6.674;2022-10-12T04:52:30;3.67;;;1.33;;
55212;SDS011;41083;52.932;6.674;2022-10-12T04:54:56;3.55;;;1.40;;
55212;SDS011;41083;52.932;6.674;2022-10-12T04:57:22;9.15;;;1.88;;
55212;SDS011;41083;52.932;6.674;2022-10-12T04:59:47;2.78;;;1.40;;
55212;SDS011;41083;52.932;6.674;2022-10-12T05:02:13;1.73;;;1.10;;
55212;SDS011;41083;52.932;6.674;2022-10-12T05:04:39;1.65;;;0.95;;
55212;SDS011;41083;52.932;6.674;2022-10-12T05:07:04;1.70;;;0.80;;
55212;SDS011;41083;52.932;6.674;2022-10-12T05:09:30;9.05;;;2.47;;
55212;SDS011;41083;52.932;6.674;2022-10-12T05:11:56;2.05;;;1.20;;
55212;SDS011;41083;52.932;6.674;2022-10-12T05:14:21;4.43;;;2.00;;
55212;SDS011;41083;52.932;6.674;2022-10-12T05:16:47;4.15;;;1.40;;
55212;SDS011;41083;52.932;6.674;2022-10-12T05:19:13;2.95;;;1.58;;
55212;SDS011;41083;52.932;6.674;2022-10-12T05:21:38;2.53;;;1.38;;
55212;SDS011;41083;52.932;6.674;2022-10-12T05:24:04;6.22;;;1.98;;
55212;SDS011;41083;52.932;6.674;2022-10-12T05:26:31;3.58;;;1.70;;
55212;SDS011;41083;52.932;6.674;2022-10-12T05:28:56;5.60;;;1.52;;
55212;SDS011;41083;52.932;6.674;2022-10-12T05:31:22;3.47;;;1.65;;
55212;SDS011;41083;52.932;6.674;2022-10-12T05:33:48;5.50;;;1.75;;
55212;SDS011;41083;52.932;6.674;2022-10-12T05:36:13;4.28;;;1.67;;
55212;SDS011;41083;52.932;6.674;2022-10-12T05:38:39;1.42;;;0.88;;
55212;SDS011;41083;52.932;6.674;2022-10-12T05:41:04;3.17;;;1.77;;
55212;SDS011;41083;52.932;6.674;2022-10-12T05:43:30;4.55;;;1.65;;
55212;SDS011;41083;52.932;6.674;2022-10-12T05:45:56;5.63;;;2.08;;
55212;SDS011;41083;52.932;6.674;2022-10-12T05:48:21;5.50;;;1.85;;
55212;SDS011;41083;52.932;6.674;2022-10-12T05:50:47;8.40;;;1.75;;
55212;SDS011;41083;52.932;6.674;2022-10-12T05:53:17;3.97;;;1.75;;
55212;SDS011;41083;52.932;6.674;2022-10-12T05:55:56;5.32;;;1.90;;
55212;SDS011;41083;52.932;6.674;2022-10-12T05:58:23;4.55;;;2.17;;
55212;SDS011;41083;52.932;6.674;2022-10-12T06:00:50;3.42;;;1.77;;
55212;SDS011;41083;52.932;6.674;2022-10-12T06:03:16;3.00;;;1.80;;
55212;SDS011;41083;52.932;6.674;2022-10-12T06:05:42;4.63;;;2.45;;
55212;SDS011;41083;52.932;6.674;2022-10-12T06:08:08;6.93;;;2.00;;
55212;SDS011;41083;52.932;6.674;2022-10-12T06:10:35;6.50;;;1.83;;
55212;SDS011;41083;52.932;6.674;2022-10-12T06:13:01;3.90;;;1.92;;
55212;SDS011;41083;52.932;6.674;2022-10-12T06:15:27;4.18;;;2.22;;
55212;SDS011;41083;52.932;6.674;2022-10-12T06:17:53;7.38;;;2.58;;
55212;SDS011;41083;52.932;6.674;2022-10-12T06:20:19;3.72;;;2.03;;
55212;SDS011;41083;52.932;6.674;2022-10-12T06:22:45;5.65;;;1.70;;
55212;SDS011;41083;52.932;6.674;2022-10-12T06:25:10;5.32;;;1.90;;
55212;SDS011;41083;52.932;6.674;2022-10-12T06:27:36;5.22;;;2.05;;
55212;SDS011;41083;52.932;6.674;2022-10-12T06:30:02;7.25;;;2.63;;
55212;SDS011;41083;52.932;6.674;2022-10-12T06:32:28;4.43;;;2.38;;
55212;SDS011;41083;52.932;6.674;2022-10-12T06:34:53;7.55;;;3.10;;
55212;SDS011;41083;52.932;6.674;2022-10-12T06:37:19;3.70;;;2.10;;
55212;SDS011;41083;52.932;6.674;2022-10-12T06:39:44;5.75;;;2.55;;
55212;SDS011;41083;52.932;6.674;2022-10-12T06:42:10;6.00;;;2.45;;
55212;SDS011;41083;52.932;6.674;2022-10-12T06:44:36;6.55;;;2.70;;
55212;SDS011;41083;52.932;6.674;2022-10-12T06:47:01;3.17;;;2.15;;
55212;SDS011;41083;52.932;6.674;2022-10-12T06:49:27;4.47;;;2.28;;
55212;SDS011;41083;52.932;6.674;2022-10-12T06:51:52;5.72;;;2.20;;
55212;SDS011;41083;52.932;6.674;2022-10-12T06:54:18;4.43;;;2.42;;
55212;SDS011;41083;52.932;6.674;2022-10-12T06:56:44;6.30;;;2.40;;
55212;SDS011;41083;52.932;6.674;2022-10-12T06:59:10;3.50;;;2.33;;
55212;SDS011;41083;52.932;6.674;2022-10-12T07:01:37;5.70;;;2.40;;
55212;SDS011;41083;52.932;6.674;2022-10-12T07:04:03;4.53;;;2.20;;
55212;SDS011;41083;52.932;6.674;2022-10-12T07:06:28;11.88;;;2.35;;
55212;SDS011;41083;52.932;6.674;2022-10-12T07:08:54;3.75;;;2.10;;
55212;SDS011;41083;52.932;6.674;2022-10-12T07:11:20;9.13;;;2.55;;
55212;SDS011;41083;52.932;6.674;2022-10-12T07:13:46;6.30;;;2.85;;
55212;SDS011;41083;52.932;6.674;2022-10-12T07:16:12;2.70;;;1.75;;
55212;SDS011;41083;52.932;6.674;2022-10-12T07:18:37;6.13;;;1.60;;
55212;SDS011;41083;52.932;6.674;2022-10-12T07:21:04;4.20;;;1.80;;
55212;SDS011;41083;52.932;6.674;2022-10-12T07:23:30;5.68;;;2.38;;
55212;SDS011;41083;52.932;6.674;2022-10-12T07:25:56;4.05;;;2.33;;
55212;SDS011;41083;52.932;6.674;2022-10-12T07:28:22;11.00;;;4.10;;
55212;SDS011;41083;52.932;6.674;2022-10-12T07:30:48;12.50;;;4.28;;
55212;SDS011;41083;52.932;6.674;2022-10-12T07:33:13;3.80;;;1.77;;
55212;SDS011;41083;52.932;6.674;2022-10-12T07:35:39;8.13;;;2.50;;
55212;SDS011;41083;52.932;6.674;2022-10-12T07:38:05;6.47;;;2.30;;
55212;SDS011;41083;52.932;6.674;2022-10-12T07:40:31;3.95;;;1.92;;
55212;SDS011;41083;52.932;6.674;2022-10-12T07:42:57;4.43;;;2.08;;
55212;SDS011;41083;52.932;6.674;2022-10-12T07:45:23;5.00;;;1.88;;
55212;SDS011;41083;52.932;6.674;2022-10-12T07:47:49;3.55;;;2.00;;
55212;SDS011;41083;52.932;6.674;2022-10-12T07:50:14;6.30;;;1.98;;
55212;SDS011;41083;52.932;6.674;2022-10-12T07:52:40;3.58;;;1.65;;
55212;SDS011;41083;52.932;6.674;2022-10-12T07:55:06;5.57;;;3.45;;
55212;SDS011;41083;52.932;6.674;2022-10-12T07:57:32;6.03;;;2.47;;
55212;SDS011;41083;52.932;6.674;2022-10-12T07:59:58;4.03;;;2.28;;
55212;SDS011;41083;52.932;6.674;2022-10-12T08:02:23;6.53;;;2.40;;
55212;SDS011;41083;52.932;6.674;2022-10-12T08:04:50;6.00;;;1.92;;
55212;SDS011;41083;52.932;6.674;2022-10-12T08:07:15;4.15;;;1.85;;
55212;SDS011;41083;52.932;6.674;2022-10-12T08:09:41;5.63;;;2.13;;
55212;SDS011;41083;52.932;6.674;2022-10-12T08:12:08;3.65;;;1.70;;
55212;SDS011;41083;52.932;6.674;2022-10-12T08:14:34;3.72;;;2.00;;
55212;SDS011;41083;52.932;6.674;2022-10-12T08:17:00;3.55;;;1.70;;
55212;SDS011;41083;52.932;6.674;2022-10-12T08:19:26;4.50;;;1.35;;
55212;SDS011;41083;52.932;6.674;2022-10-12T08:21:51;3.40;;;1.73;;
55212;SDS011;41083;52.932;6.674;2022-10-12T08:24:17;3.58;;;1.63;;
55212;SDS011;41083;52.932;6.674;2022-10-12T08:26:42;3.65;;;1.40;;
55212;SDS011;41083;52.932;6.674;2022-10-12T08:29:08;9.90;;;2.28;;
55212;SDS011;41083;52.932;6.674;2022-10-12T08:31:34;3.55;;;1.40;;
55212;SDS011;41083;52.932;6.674;2022-10-12T08:34:00;5.22;;;1.55;;
55212;SDS011;41083;52.932;6.674;2022-10-12T08:36:26;5.22;;;1.58;;
55212;SDS011;41083;52.932;6.674;2022-10-12T08:38:52;1.65;;;0.90;;
55212;SDS011;41083;52.932;6.674;2022-10-12T08:47:14;2.88;;;1.60;;
55212;SDS011;41083;52.932;6.674;2022-10-12T08:49:58;3.65;;;1.90;;
55212;SDS011;41083;52.932;6.674;2022-10-12T08:54:55;3.17;;;1.65;;
55212;SDS011;41083;52.932;6.674;2022-10-12T08:57:26;3.45;;;1.55;;
55212;SDS011;41083;52.932;6.674;2022-10-12T08:59:51;7.85;;;1.95;;
55212;SDS011;41083;52.932;6.674;2022-10-12T09:02:37;4.05;;;1.42;;
55212;SDS011;41083;52.932;6.674;2022-10-12T09:05:10;3.63;;;1.60;;
55212;SDS011;41083;52.932;6.674;2022-10-12T09:07:44;4.93;;;1.75;;
55212;SDS011;41083;52.932;6.674;2022-10-12T09:15:50;8.35;;;2.65;;
55212;SDS011;41083;52.932;6.674;2022-10-12T09:18:21;4.22;;;2.30;;
55212;SDS011;41083;52.932;6.674;2022-10-12T09:21:00;8.93;;;2.28;;
55212;SDS011;41083;52.932;6.674;2022-10-12T09:23:31;5.80;;;2.05;;
55212;SDS011;41083;52.932;6.674;2022-10-12T09:26:15;5.35;;;2.30;;
55212;SDS011;41083;52.932;6.674;2022-10-12T09:34:11;4.32;;;1.63;;
55212;SDS011;41083;52.932;6.674;2022-10-12T09:36:37;4.18;;;1.77;;
55212;SDS011;41083;52.932;6.674;2022-10-12T09:39:18;4.72;;;1.70;;
55212;SDS011;41083;52.932;6.674;2022-10-12T09:41:46;3.53;;;1.73;;
55212;SDS011;41083;52.932;6.674;2022-10-12T09:47:05;7.47;;;2.17;;
55212;SDS011;41083;52.932;6.674;2022-10-12T09:52:36;4.30;;;1.98;;
55212;SDS011;41083;52.932;6.674;2022-10-12T09:57:53;2.55;;;1.13;;
55212;SDS011;41083;52.932;6.674;2022-10-12T10:00:31;3.50;;;0.80;;
55212;SDS011;41083;52.932;6.674;2022-10-12T10:02:58;6.20;;;1.95;;
55212;SDS011;41083;52.932;6.674;2022-10-12T10:05:28;3.67;;;1.00;;
55212;SDS011;41083;52.932;6.674;2022-10-12T10:08:17;2.40;;;1.20;;
55212;SDS011;41083;52.932;6.674;2022-10-12T10:10:49;4.07;;;1.38;;
55212;SDS011;41083;52.932;6.674;2022-10-12T10:13:26;4.97;;;1.30;;
55212;SDS011;41083;52.932;6.674;2022-10-12T10:18:32;5.05;;;1.00;;
55212;SDS011;41083;52.932;6.674;2022-10-12T10:21:02;3.53;;;0.82;;
55212;SDS011;41083;52.932;6.674;2022-10-12T10:23:31;2.78;;;1.17;;
55212;SDS011;41083;52.932;6.674;2022-10-12T10:26:07;2.78;;;1.15;;
55212;SDS011;41083;52.932;6.674;2022-10-12T10:28:37;2.40;;;1.15;;
55212;SDS011;41083;52.932;6.674;2022-10-12T10:36:58;6.47;;;1.50;;
55212;SDS011;41083;52.932;6.674;2022-10-12T10:39:47;5.88;;;1.27;;
55212;SDS011;41083;52.932;6.674;2022-10-12T10:42:34;3.13;;;0.70;;
55212;SDS011;41083;52.932;6.674;2022-10-12T10:45:25;5.30;;;1.23;;
55212;SDS011;41083;52.932;6.674;2022-10-12T10:48:14;1.67;;;0.90;;
55212;SDS011;41083;52.932;6.674;2022-10-12T10:50:43;1.90;;;0.95;;
55212;SDS011;41083;52.932;6.674;2022-10-12T10:53:24;2.45;;;0.93;;
55212;SDS011;41083;52.932;6.674;2022-10-12T10:56:07;3.45;;;1.15;;
55212;SDS011;41083;52.932;6.674;2022-10-12T10:58:41;3.53;;;1.40;;
55212;SDS011;41083;52.932;6.674;2022-10-12T11:03:58;1.42;;;0.68;;
55212;SDS011;41083;52.932;6.674;2022-10-12T11:06:29;5.53;;;0.63;;
55212;SDS011;41083;52.932;6.674;2022-10-12T11:09:20;3.40;;;0.82;;
55212;SDS011;41083;52.932;6.674;2022-10-12T11:11:55;2.28;;;0.70;;
55212;SDS011;41083;52.932;6.674;2022-10-12T11:14:33;3.05;;;0.80;;
55212;SDS011;41083;52.932;6.674;2022-10-12T11:17:05;0.90;;;0.40;;
55212;SDS011;41083;52.932;6.674;2022-10-12T11:19:56;1.90;;;0.65;;
55212;SDS011;41083;52.932;6.674;2022-10-12T11:25:13;1.65;;;0.60;;
55212;SDS011;41083;52.932;6.674;2022-10-12T11:27:48;5.43;;;0.75;;
55212;SDS011;41083;52.932;6.674;2022-10-12T11:30:22;2.90;;;1.27;;
55212;SDS011;41083;52.932;6.674;2022-10-12T11:35:25;2.80;;;0.60;;
55212;SDS011;41083;52.932;6.674;2022-10-12T11:37:57;1.90;;;0.90;;
55212;SDS011;41083;52.932;6.674;2022-10-12T11:42:57;2.03;;;0.60;;
55212;SDS011;41083;52.932;6.674;2022-10-12T11:45:29;3.50;;;0.70;;
55212;SDS011;41083;52.932;6.674;2022-10-12T11:48:01;1.08;;;0.60;;
55212;SDS011;41083;52.932;6.674;2022-10-12T11:50:34;3.03;;;1.08;;
55212;SDS011;41083;52.932;6.674;2022-10-12T11:58:22;3.92;;;1.23;;
55212;SDS011;41083;52.932;6.674;2022-10-12T12:01:08;2.50;;;0.82;;
55212;SDS011;41083;52.932;6.674;2022-10-12T12:06:46;2.88;;;1.02;;
55212;SDS011;41083;52.932;6.674;2022-10-12T12:09:36;3.53;;;0.90;;
55212;SDS011;41083;52.932;6.674;2022-10-12T12:12:07;4.07;;;1.40;;
55212;SDS011;41083;52.932;6.674;2022-10-12T12:17:13;2.67;;;0.90;;
55212;SDS011;41083;52.932;6.674;2022-10-12T12:19:54;2.28;;;1.02;;
55212;SDS011;41083;52.932;6.674;2022-10-12T12:22:25;5.47;;;1.08;;
55212;SDS011;41083;52.932;6.674;2022-10-12T12:27:54;2.45;;;0.90;;
55212;SDS011;41083;52.932;6.674;2022-10-12T12:30:23;4.03;;;1.10;;
55212;SDS011;41083;52.932;6.674;2022-10-12T12:32:54;1.75;;;0.63;;
55212;SDS011;41083;52.932;6.674;2022-10-12T12:35:29;1.90;;;0.57;;
55212;SDS011;41083;52.932;6.674;2022-10-12T12:40:39;2.58;;;0.85;;
55212;SDS011;41083;52.932;6.674;2022-10-12T12:43:52;1.98;;;0.70;;
55212;SDS011;41083;52.932;6.674;2022-10-12T12:46:04;2.13;;;0.85;;
55212;SDS011;41083;52.932;6.674;2022-10-12T12:53:37;1.23;;;0.65;;
55212;SDS011;41083;52.932;6.674;2022-10-12T12:56:06;3.13;;;0.73;;
55212;SDS011;41083;52.932;6.674;2022-10-12T13:01:18;5.80;;;1.20;;
55212;SDS011;41083;52.932;6.674;2022-10-12T13:09:35;2.42;;;1.20;;
55212;SDS011;41083;52.932;6.674;2022-10-12T13:12:18;2.13;;;0.90;;
55212;SDS011;41083;52.932;6.674;2022-10-12T13:14:57;1.98;;;0.98;;
55212;SDS011;41083;52.932;6.674;2022-10-12T13:20:32;2.40;;;1.00;;
55212;SDS011;41083;52.932;6.674;2022-10-12T13:23:01;2.22;;;0.80;;
55212;SDS011;41083;52.932;6.674;2022-10-12T13:25:34;6.95;;;1.40;;
55212;SDS011;41083;52.932;6.674;2022-10-12T13:28:05;4.10;;;1.42;;
55212;SDS011;41083;52.932;6.674;2022-10-12T13:30:53;3.30;;;1.45;;
55212;SDS011;41083;52.932;6.674;2022-10-12T13:33:37;4.35;;;1.63;;
55212;SDS011;41083;52.932;6.674;2022-10-12T13:36:11;3.70;;;0.82;;
55212;SDS011;41083;52.932;6.674;2022-10-12T13:38:52;2.22;;;0.82;;
55212;SDS011;41083;52.932;6.674;2022-10-12T13:41:20;3.10;;;1.30;;
55212;SDS011;41083;52.932;6.674;2022-10-12T13:49:13;2.55;;;0.90;;
55212;SDS011;41083;52.932;6.674;2022-10-12T13:51:45;3.03;;;0.80;;
55212;SDS011;41083;52.932;6.674;2022-10-12T13:56:45;4.60;;;1.33;;
55212;SDS011;41083;52.932;6.674;2022-10-12T13:59:15;4.03;;;1.35;;
55212;SDS011;41083;52.932;6.674;2022-10-12T14:01:58;2.45;;;0.95;;
55212;SDS011;41083;52.932;6.674;2022-10-12T14:04:29;7.28;;;1.25;;
55212;SDS011;41083;52.932;6.674;2022-10-12T14:07:02;3.88;;;1.20;;
55212;SDS011;41083;52.932;6.674;2022-10-12T14:09:37;3.33;;;1.10;;
55212;SDS011;41083;52.932;6.674;2022-10-12T14:12:06;3.80;;;1.40;;
55212;SDS011;41083;52.932;6.674;2022-10-12T14:14:34;4.30;;;0.98;;
55212;SDS011;41083;52.932;6.674;2022-10-12T14:17:01;5.32;;;1.08;;
55212;SDS011;41083;52.932;6.674;2022-10-12T14:19:31;4.43;;;1.20;;
55212;SDS011;41083;52.932;6.674;2022-10-12T14:22:06;3.75;;;1.20;;
55212;SDS011;41083;52.932;6.674;2022-10-12T14:24:33;6.38;;;1.35;;
55212;SDS011;41083;52.932;6.674;2022-10-12T14:27:00;5.47;;;1.45;;
55212;SDS011;41083;52.932;6.674;2022-10-12T14:29:41;4.60;;;1.30;;
55212;SDS011;41083;52.932;6.674;2022-10-12T14:34:41;3.45;;;1.15;;
55212;SDS011;41083;52.932;6.674;2022-10-12T14:39:41;3.70;;;1.60;;
55212;SDS011;41083;52.932;6.674;2022-10-12T14:42:22;5.53;;;1.88;;
55212;SDS011;41083;52.932;6.674;2022-10-12T14:44:54;3.70;;;1.35;;
55212;SDS011;41083;52.932;6.674;2022-10-12T14:47:24;3.05;;;1.17;;
55212;SDS011;41083;52.932;6.674;2022-10-12T14:49:55;2.97;;;1.30;;
55212;SDS011;41083;52.932;6.674;2022-10-12T14:54:56;4.35;;;1.92;;
55212;SDS011;41083;52.932;6.674;2022-10-12T14:57:23;5.53;;;1.60;;
55212;SDS011;41083;52.932;6.674;2022-10-12T14:59:51;7.10;;;1.50;;
55212;SDS011;41083;52.932;6.674;2022-10-12T15:02:18;3.33;;;1.15;;
55212;SDS011;41083;52.932;6.674;2022-10-12T15:04:49;4.03;;;1.17;;
55212;SDS011;41083;52.932;6.674;2022-10-12T15:07:22;3.08;;;1.27;;
55212;SDS011;41083;52.932;6.674;2022-10-12T15:09:49;4.47;;;1.75;;
55212;SDS011;41083;52.932;6.674;2022-10-12T15:12:16;3.47;;;0.90;;
55212;SDS011;41083;52.932;6.674;2022-10-12T15:14:44;1.90;;;0.98;;
55212;SDS011;41083;52.932;6.674;2022-10-12T15:17:11;4.97;;;1.30;;
55212;SDS011;41083;52.932;6.674;2022-10-12T15:19:38;2.72;;;0.90;;
55212;SDS011;41083;52.932;6.674;2022-10-12T15:22:05;8.85;;;1.38;;
55212;SDS011;41083;52.932;6.674;2022-10-12T15:24:31;3.58;;;0.88;;
55212;SDS011;41083;52.932;6.674;2022-10-12T15:26:57;3.25;;;0.75;;
55212;SDS011;41083;52.932;6.674;2022-10-12T15:29:23;1.92;;;0.88;;
55212;SDS011;41083;52.932;6.674;2022-10-12T15:31:48;3.05;;;1.05;;
55212;SDS011;41083;52.932;6.674;2022-10-12T15:34:14;2.70;;;1.15;;
55212;SDS011;41083;52.932;6.674;2022-10-12T15:36:40;2.80;;;0.95;;
55212;SDS011;41083;52.932;6.674;2022-10-12T15:39:06;2.45;;;1.33;;
55212;SDS011;41083;52.932;6.674;2022-10-12T15:41:32;3.33;;;0.90;;
55212;SDS011;41083;52.932;6.674;2022-10-12T15:43:57;2.67;;;1.15;;
55212;SDS011;41083;52.932;6.674;2022-10-12T15:46:23;2.30;;;1.17;;
55212;SDS011;41083;52.932;6.674;2022-10-12T15:48:49;7.75;;;1.05;;
55212;SDS011;41083;52.932;6.674;2022-10-12T15:51:16;1.40;;;0.80;;
55212;SDS011;41083;52.932;6.674;2022-10-12T15:53:44;3.08;;;0.93;;
55212;SDS011;41083;52.932;6.674;2022-10-12T15:56:10;2.60;;;1.10;;
55212;SDS011;41083;52.932;6.674;2022-10-12T15:58:38;3.45;;;1.67;;
55212;SDS011;41083;52.932;6.674;2022-10-12T16:01:03;1.73;;;0.90;;
55212;SDS011;41083;52.932;6.674;2022-10-12T16:03:29;1.88;;;0.80;;
55212;SDS011;41083;52.932;6.674;2022-10-12T16:05:56;3.03;;;0.80;;
55212;SDS011;41083;52.932;6.674;2022-10-12T16:08:22;2.78;;;1.00;;
55212;SDS011;41083;52.932;6.674;2022-10-12T16:10:48;2.58;;;0.60;;
55212;SDS011;41083;52.932;6.674;2022-10-12T16:13:14;3.35;;;1.33;;
55212;SDS011;41083;52.932;6.674;2022-10-12T16:15:40;6.78;;;2.60;;
55212;SDS011;41083;52.932;6.674;2022-10-12T16:18:07;6.07;;;2.45;;
55212;SDS011;41083;52.932;6.674;2022-10-12T16:20:34;12.20;;;5.20;;
55212;SDS011;41083;52.932;6.674;2022-10-12T16:23:02;7.43;;;5.07;;
55212;SDS011;41083;52.932;6.674;2022-10-12T16:25:29;6.53;;;4.22;;
55212;SDS011;41083;52.932;6.674;2022-10-12T16:27:55;3.72;;;2.60;;
55212;SDS011;41083;52.932;6.674;2022-10-12T16:30:22;1.83;;;1.08;;
55212;SDS011;41083;52.932;6.674;2022-10-12T16:32:48;4.05;;;0.85;;
55212;SDS011;41083;52.932;6.674;2022-10-12T16:35:14;3.67;;;1.25;;
55212;SDS011;41083;52.932;6.674;2022-10-12T16:37:40;4.80;;;1.10;;
55212;SDS011;41083;52.932;6.674;2022-10-12T16:40:06;1.88;;;1.10;;
55212;SDS011;41083;52.932;6.674;2022-10-12T16:42:33;11.98;;;1.55;;
55212;SDS011;41083;52.932;6.674;2022-10-12T16:44:59;1.35;;;0.60;;
55212;SDS011;41083;52.932;6.674;2022-10-12T16:47:24;4.03;;;1.10;;
55212;SDS011;41083;52.932;6.674;2022-10-12T16:49:51;2.10;;;0.98;;
55212;SDS011;41083;52.932;6.674;2022-10-12T16:52:17;3.92;;;1.05;;
55212;SDS011;41083;52.932;6.674;2022-10-12T16:54:48;3.67;;;0.68;;
55212;SDS011;41083;52.932;6.674;2022-10-12T16:57:14;1.42;;;0.60;;
55212;SDS011;41083;52.932;6.674;2022-10-12T16:59:40;3.17;;;0.88;;